createdAt,value
2017-11-01T00:00:22.387Z,36.50
2017-11-01T00:02:52.156Z,37.73
2017-11-01T00:05:20.511Z,43.37
2017-11-01T00:07:48.962Z,33.80
2017-11-01T00:10:18.256Z,40.87
2017-11-01T00:12:47.180Z,35.00
2017-11-01T00:15:16.350Z,35.83
2017-11-01T00:17:45.742Z,29.40
2017-11-01T00:20:14.419Z,26.60
2017-11-01T00:22:43.605Z,31.73
2017-11-01T00:25:12.034Z,31.03
2017-11-01T00:27:41.211Z,31.47
2017-11-01T00:30:09.578Z,27.90
2017-11-01T00:32:38.629Z,31.77
2017-11-01T00:35:07.815Z,29.70
2017-11-01T00:37:36.173Z,27.83
2017-11-01T00:40:06.078Z,27.80
2017-11-01T00:42:34.462Z,32.17
2017-11-01T00:45:03.836Z,30.90
2017-11-01T00:47:32.213Z,32.33
2017-11-01T00:50:00.585Z,31.70
2017-11-01T00:52:28.933Z,31.37
2017-11-01T00:54:57.918Z,37.93
2017-11-01T00:57:26.274Z,30.60
2017-11-01T00:59:54.639Z,30.97
2017-11-01T01:02:24.685Z,29.70
2017-11-01T01:04:53.754Z,33.90
2017-11-01T01:07:22.378Z,36.23
2017-11-01T01:09:51.790Z,33.03
2017-11-01T01:12:20.127Z,28.83
2017-11-01T01:14:50.188Z,32.60
2017-11-01T01:17:18.853Z,31.60
2017-11-01T01:19:47.189Z,30.40
2017-11-01T01:22:15.550Z,30.73
2017-11-01T01:24:44.565Z,37.77
2017-11-01T01:27:12.926Z,29.90
2017-11-01T01:29:41.315Z,29.97
2017-11-01T01:32:10.838Z,30.67
2017-11-01T01:34:39.190Z,31.20
2017-11-01T01:37:08.150Z,30.83
2017-11-01T01:39:37.442Z,31.03
2017-11-01T01:42:06.551Z,29.33
2017-11-01T01:44:39.402Z,31.70
2017-11-01T01:47:08.654Z,37.43
2017-11-01T01:49:37.041Z,28.43
2017-11-01T01:52:05.615Z,28.07
2017-11-01T01:54:34.007Z,29.80
2017-11-01T01:57:02.390Z,30.23
2017-11-01T01:59:30.751Z,30.40
2017-11-01T02:01:59.427Z,28.43
2017-11-01T02:04:28.554Z,28.97
2017-11-01T02:06:56.925Z,34.20
2017-11-01T02:09:25.311Z,28.27
2017-11-01T02:11:53.741Z,31.07
2017-11-01T02:14:22.860Z,33.90
2017-11-01T02:16:52.005Z,26.00
2017-11-01T02:19:20.356Z,28.20
2017-11-01T02:21:48.700Z,24.93
2017-11-01T02:24:17.139Z,27.67
2017-11-01T02:26:46.703Z,27.10
2017-11-01T02:29:15.065Z,26.60
2017-11-01T02:31:44.224Z,25.10
2017-11-01T02:34:12.575Z,29.13
2017-11-01T02:36:40.936Z,25.27
2017-11-01T02:39:09.303Z,26.77
2017-11-01T02:41:38.941Z,24.37
2017-11-01T02:44:07.315Z,23.63
2017-11-01T02:46:36.274Z,26.80
2017-11-01T02:49:04.647Z,25.77
2017-11-01T02:51:33.848Z,28.70
2017-11-01T02:54:02.291Z,25.80
2017-11-01T02:56:32.098Z,25.40
2017-11-01T02:59:01.201Z,31.07
2017-11-01T03:01:32.341Z,27.30
2017-11-01T03:04:00.745Z,27.10
2017-11-01T03:06:29.245Z,33.60
2017-11-01T03:08:58.603Z,30.30
2017-11-01T03:11:27.529Z,28.93
2017-11-01T03:13:55.886Z,31.03
2017-11-01T03:16:24.321Z,29.53
2017-11-01T03:18:52.747Z,29.33
2017-11-01T03:21:21.114Z,32.83
2017-11-01T03:23:50.270Z,28.07
2017-11-01T03:26:18.637Z,39.70
2017-11-01T03:28:47.804Z,38.93
2017-11-01T03:31:16.416Z,32.73
2017-11-01T03:33:45.866Z,42.80
2017-11-01T03:36:14.242Z,34.30
2017-11-01T03:38:42.800Z,36.03
2017-11-01T03:41:11.977Z,38.23
2017-11-01T03:43:41.129Z,36.30
2017-11-01T03:46:09.558Z,34.67
2017-11-01T03:48:37.994Z,42.90
2017-11-01T03:51:06.499Z,39.07
2017-11-01T03:53:34.925Z,38.57
2017-11-01T03:56:03.374Z,40.90
2017-11-01T03:58:31.744Z,39.53
2017-11-01T04:01:00.202Z,45.07
2017-11-01T04:03:29.374Z,51.50
2017-11-01T04:05:57.805Z,42.10
2017-11-01T04:08:26.216Z,48.30
2017-11-01T04:10:55.457Z,44.07
2017-11-01T04:13:23.917Z,49.80
2017-11-01T04:15:52.705Z,48.50
2017-11-01T04:21:30.496Z,50.40
2017-11-01T04:24:00.014Z,50.97
2017-11-01T04:26:29.466Z,54.43
2017-11-01T04:28:58.956Z,46.87
2017-11-01T04:31:27.496Z,51.13
2017-11-01T04:33:56.643Z,57.10
2017-11-01T04:36:26.133Z,53.60
2017-11-01T04:38:55.004Z,59.13
2017-11-01T04:41:23.744Z,51.00
2017-11-01T04:43:52.386Z,56.30
2017-11-01T04:46:20.816Z,52.73
2017-11-01T04:48:51.958Z,60.73
2017-11-01T04:51:27.673Z,52.93
2017-11-01T04:53:56.026Z,59.73
2017-11-01T04:56:25.134Z,56.53
2017-11-01T04:58:54.223Z,54.03
2017-11-01T05:01:22.576Z,53.23
2017-11-01T05:03:51.694Z,59.47
2017-11-01T05:06:20.078Z,57.10
2017-11-01T05:08:51.418Z,53.73
2017-11-01T05:11:22.938Z,60.23
2017-11-01T05:13:58.395Z,59.97
2017-11-01T05:16:27.648Z,57.73
2017-11-01T05:18:55.993Z,60.43
2017-11-01T05:21:25.037Z,57.27
2017-11-01T05:23:53.413Z,55.50
2017-11-01T05:26:21.761Z,58.00
2017-11-01T05:28:50.117Z,64.53
2017-11-01T05:31:20.857Z,53.30
2017-11-01T05:33:49.200Z,57.90
2017-11-01T05:36:17.632Z,66.50
2017-11-01T05:38:46.023Z,61.90
2017-11-01T05:41:14.369Z,65.47
2017-11-01T05:43:43.486Z,62.17
2017-11-01T05:46:11.861Z,67.33
2017-11-01T05:48:40.937Z,72.27
2017-11-01T05:51:10.158Z,65.87
2017-11-01T05:53:39.665Z,63.83
2017-11-01T05:56:08.025Z,72.83
2017-11-01T05:58:37.144Z,70.80
2017-11-01T06:01:06.430Z,70.47
2017-11-01T06:03:34.802Z,71.30
2017-11-01T06:06:03.869Z,77.30
2017-11-01T06:08:32.626Z,78.07
2017-11-01T06:11:01.977Z,71.37
2017-11-01T06:13:30.309Z,72.80
2017-11-01T06:16:00.628Z,93.30
2017-11-01T06:18:30.651Z,81.73
2017-11-01T06:20:58.998Z,77.73
2017-11-01T06:23:28.135Z,86.40
2017-11-01T06:25:56.508Z,71.30
2017-11-01T06:28:24.876Z,74.43
2017-11-01T06:30:54.600Z,77.23
2017-11-01T06:33:23.984Z,67.13
2017-11-01T06:35:52.334Z,68.67
2017-11-01T06:38:22.514Z,63.67
2017-11-01T06:40:51.165Z,65.27
2017-11-01T06:43:19.584Z,63.93
2017-11-01T06:45:47.942Z,60.60
2017-11-01T06:48:16.293Z,66.97
2017-11-01T06:50:45.422Z,67.10
2017-11-01T06:53:13.800Z,62.17
2017-11-01T06:55:42.357Z,58.33
2017-11-01T06:58:11.400Z,55.53
2017-11-01T07:00:39.889Z,50.70
2017-11-01T07:06:09.858Z,52.47
2017-11-01T07:08:38.221Z,53.60
2017-11-01T07:11:07.101Z,51.63
2017-11-01T07:13:35.516Z,44.80
2017-11-01T07:16:04.629Z,44.70
2017-11-01T07:18:32.990Z,46.97
2017-11-01T07:21:01.881Z,50.57
2017-11-01T07:23:30.533Z,53.03
2017-11-01T07:25:59.580Z,48.00
2017-11-01T07:28:28.301Z,48.43
2017-11-01T07:30:57.428Z,44.27
2017-11-01T07:33:26.553Z,59.67
2017-11-01T07:35:55.701Z,48.33
2017-11-01T07:38:24.821Z,57.90
2017-11-01T07:40:53.187Z,52.60
2017-11-01T07:43:23.289Z,53.07
2017-11-01T07:45:51.660Z,55.53
2017-11-01T07:48:20.046Z,55.03
2017-11-01T07:50:48.524Z,59.47
2017-11-01T07:53:16.870Z,55.40
2017-11-01T07:55:45.218Z,57.87
2017-11-01T07:58:14.484Z,57.93
2017-11-01T08:00:44.312Z,58.87
2017-11-01T08:03:13.503Z,64.33
2017-11-01T08:05:42.077Z,64.53
2017-11-01T08:08:10.442Z,66.13
2017-11-01T08:10:39.749Z,65.27
2017-11-01T08:13:10.294Z,69.90
2017-11-01T08:15:38.861Z,63.63
2017-11-01T08:18:07.232Z,72.60
2017-11-01T08:20:35.627Z,62.03
2017-11-01T08:23:03.974Z,66.40
2017-11-01T08:25:32.852Z,66.43
2017-11-01T08:28:01.298Z,62.40
2017-11-01T08:30:30.482Z,81.13
2017-11-01T08:32:58.853Z,60.40
2017-11-01T08:35:27.537Z,65.93
2017-11-01T08:37:56.630Z,60.50
2017-11-01T08:40:24.977Z,61.27
2017-11-01T08:42:53.713Z,63.00
2017-11-01T08:45:22.063Z,63.00
2017-11-01T08:47:50.425Z,62.37
2017-11-01T08:50:19.416Z,56.83
2017-11-01T08:52:47.784Z,55.00
2017-11-01T08:55:16.893Z,51.23
2017-11-01T08:57:45.261Z,51.50
2017-11-01T09:00:13.723Z,50.90
2017-11-01T09:02:42.109Z,51.83
2017-11-01T09:05:11.293Z,48.17
2017-11-01T09:07:41.134Z,52.47
2017-11-01T09:10:11.713Z,57.60
2017-11-01T09:12:40.391Z,51.40
2017-11-01T09:15:08.762Z,47.83
2017-11-01T09:17:37.197Z,56.57
2017-11-01T09:20:05.572Z,48.93
2017-11-01T09:22:34.831Z,57.60
2017-11-01T09:25:03.206Z,45.73
2017-11-01T09:27:32.337Z,48.83
2017-11-01T09:30:00.760Z,50.37
2017-11-01T09:32:29.143Z,49.77
2017-11-01T09:34:58.437Z,50.33
2017-11-01T09:37:26.791Z,53.87
2017-11-01T09:39:56.313Z,49.03
2017-11-01T09:42:25.497Z,45.23
2017-11-01T09:44:55.282Z,49.63
2017-11-01T09:47:23.646Z,60.77
2017-11-01T09:49:52.050Z,57.63
2017-11-01T09:52:20.397Z,45.20
2017-11-01T09:54:50.482Z,41.20
2017-11-01T09:57:20.423Z,42.40
2017-11-01T09:59:49.511Z,42.90
2017-11-01T10:02:20.138Z,47.47
2017-11-01T10:04:48.502Z,48.57
2017-11-01T10:07:18.645Z,46.93
2017-11-01T10:09:47.744Z,42.27
2017-11-01T10:12:16.865Z,44.40
2017-11-01T10:14:46.057Z,46.60
2017-11-01T10:17:14.452Z,38.43
2017-11-01T10:19:43.437Z,52.23
2017-11-01T10:22:12.607Z,41.80
2017-11-01T10:24:42.210Z,41.27
2017-11-01T10:27:10.562Z,43.27
2017-11-01T10:29:39.786Z,37.10
2017-11-01T10:32:08.305Z,40.13
2017-11-01T10:34:36.694Z,38.43
2017-11-01T10:37:05.074Z,47.87
2017-11-01T10:39:34.224Z,42.97
2017-11-01T10:42:03.775Z,37.70
2017-11-01T10:44:32.127Z,46.73
2017-11-01T10:47:00.498Z,47.13
2017-11-01T10:49:28.907Z,37.33
2017-11-01T10:51:57.246Z,45.93
2017-11-01T10:54:25.590Z,44.60
2017-11-01T10:56:53.972Z,44.13
2017-11-01T10:59:22.301Z,44.13
2017-11-01T11:01:50.656Z,41.70
2017-11-01T11:04:20.102Z,43.53
2017-11-01T11:06:48.453Z,46.87
2017-11-01T11:09:16.788Z,50.23
2017-11-01T11:11:47.770Z,45.60
2017-11-01T11:14:16.939Z,47.47
2017-11-01T11:16:45.290Z,48.50
2017-11-01T11:19:13.677Z,52.83
2017-11-01T11:21:42.028Z,52.23
2017-11-01T11:24:10.350Z,55.80
2017-11-01T11:26:40.266Z,53.60
2017-11-01T11:29:10.284Z,49.00
2017-11-01T11:31:38.643Z,56.20
2017-11-01T11:34:08.259Z,50.73
2017-11-01T11:36:36.593Z,60.70
2017-11-01T11:39:04.941Z,51.67
2017-11-01T11:41:33.323Z,51.37
2017-11-01T11:44:01.674Z,63.80
2017-11-01T11:46:30.020Z,64.10
2017-11-01T11:48:58.593Z,55.47
2017-11-01T11:51:26.939Z,57.63
2017-11-01T11:53:55.299Z,56.90
2017-11-01T11:56:25.414Z,56.80
2017-11-01T11:58:53.766Z,53.90
2017-11-01T12:01:22.145Z,60.97
2017-11-01T12:03:51.854Z,66.60
2017-11-01T12:06:20.217Z,54.00
2017-11-01T12:08:48.584Z,56.63
2017-11-01T12:11:17.355Z,72.43
2017-11-01T12:13:45.720Z,65.97
2017-11-01T12:16:15.314Z,59.53
2017-11-01T12:18:44.199Z,66.67
2017-11-01T12:21:12.774Z,70.27
2017-11-01T12:23:41.129Z,63.47
2017-11-01T12:26:10.831Z,77.30
2017-11-01T12:28:39.190Z,76.40
2017-11-01T12:31:07.540Z,65.03
2017-11-01T12:33:36.269Z,67.40
2017-11-01T12:36:04.659Z,71.53
2017-11-01T12:38:33.016Z,73.60
2017-11-01T12:41:01.391Z,68.67
2017-11-01T12:43:30.107Z,70.57
2017-11-01T12:45:59.373Z,72.37
2017-11-01T12:48:28.526Z,82.77
2017-11-01T12:50:57.213Z,66.67
2017-11-01T12:53:25.580Z,72.20
2017-11-01T12:55:54.125Z,73.50
2017-11-01T12:58:22.467Z,73.17
2017-11-01T13:00:51.590Z,76.80
2017-11-01T13:03:19.984Z,75.80
2017-11-01T13:05:48.357Z,81.60
2017-11-01T13:08:17.680Z,76.90
2017-11-01T13:10:46.814Z,73.20
2017-11-01T13:13:15.195Z,86.47
2017-11-01T13:15:43.573Z,73.73
2017-11-01T13:18:14.037Z,76.03
2017-11-01T13:20:43.180Z,71.83
2017-11-01T13:23:11.897Z,72.67
2017-11-01T13:25:41.225Z,82.20
2017-11-01T13:28:10.934Z,70.57
2017-11-01T13:30:41.105Z,88.93
2017-11-01T13:33:09.484Z,79.40
2017-11-01T13:35:37.867Z,77.90
2017-11-01T13:38:06.212Z,85.10
2017-11-01T13:40:35.202Z,75.60
2017-11-01T13:43:03.550Z,75.90
2017-11-01T13:45:32.715Z,83.33
2017-11-01T13:48:01.089Z,85.87
2017-11-01T13:50:30.275Z,84.47
2017-11-01T13:52:59.187Z,73.17
2017-11-01T13:55:28.274Z,80.67
2017-11-01T13:57:56.640Z,102.43
2017-11-01T14:00:24.974Z,93.60
2017-11-01T14:02:54.625Z,83.80
2017-11-01T14:05:24.146Z,88.20
2017-11-01T14:07:53.106Z,91.13
2017-11-01T14:10:21.486Z,80.07
2017-11-01T14:12:49.833Z,82.57
2017-11-01T14:15:18.176Z,99.07
2017-11-01T14:17:46.552Z,85.77
2017-11-01T14:20:14.893Z,93.77
2017-11-01T14:22:44.002Z,88.73
2017-11-01T14:25:12.914Z,95.83
2017-11-01T14:27:41.315Z,93.93
2017-11-01T14:30:10.975Z,94.67
2017-11-01T14:32:40.269Z,99.20
2017-11-01T14:35:09.602Z,95.23
2017-11-01T14:37:37.946Z,116.37
2017-11-01T14:40:07.086Z,100.90
2017-11-01T14:42:35.454Z,97.20
2017-11-01T14:45:03.803Z,106.80
2017-11-01T14:47:33.077Z,105.43
2017-11-01T14:50:01.476Z,115.37
2017-11-01T14:52:30.609Z,112.33
2017-11-01T14:54:59.015Z,107.90
2017-11-01T14:57:27.777Z,116.10
2017-11-01T14:59:56.114Z,105.40
2017-11-01T15:02:26.031Z,106.03
2017-11-01T15:04:55.840Z,104.13
2017-11-01T15:07:24.960Z,111.27
2017-11-01T15:09:54.694Z,105.03
2017-11-01T15:12:23.250Z,104.00
2017-11-01T15:14:52.357Z,109.53
2017-11-01T15:17:20.732Z,88.33
2017-11-01T15:19:49.074Z,104.73
2017-11-01T15:22:17.631Z,86.50
2017-11-01T15:24:46.019Z,93.93
2017-11-01T15:27:15.137Z,86.93
2017-11-01T15:29:43.480Z,91.73
2017-11-01T15:32:11.948Z,92.87
2017-11-01T15:34:40.572Z,91.83
2017-11-01T15:37:08.936Z,101.07
2017-11-01T15:39:38.020Z,92.47
2017-11-01T15:42:07.250Z,98.77
2017-11-01T15:44:35.690Z,89.43
2017-11-01T15:47:04.775Z,97.90
2017-11-01T15:49:33.123Z,105.10
2017-11-01T15:52:02.250Z,99.87
2017-11-01T15:54:31.714Z,98.47
2017-11-01T15:57:00.098Z,97.90
2017-11-01T15:59:28.460Z,104.50
2017-11-01T16:01:58.032Z,94.40
2017-11-01T16:04:26.387Z,103.77
2017-11-01T16:06:55.756Z,107.50
2017-11-01T16:09:24.124Z,113.67
2017-11-01T16:11:52.460Z,114.10
2017-11-01T16:14:20.832Z,105.27
2017-11-01T16:16:51.000Z,119.17
2017-11-01T16:19:19.350Z,109.80
2017-11-01T16:21:47.703Z,105.97
2017-11-01T16:24:16.723Z,100.83
2017-11-01T16:26:45.065Z,116.70
2017-11-01T16:29:15.919Z,115.07
2017-11-01T16:31:45.693Z,111.70
2017-11-01T16:34:14.745Z,118.83
2017-11-01T16:36:43.102Z,112.10
2017-11-01T16:39:11.703Z,119.33
2017-11-01T16:41:40.689Z,98.90
2017-11-01T16:44:09.021Z,115.50
2017-11-01T16:46:37.842Z,108.30
2017-11-01T16:49:06.948Z,107.23
2017-11-01T16:51:35.537Z,116.00
2017-11-01T16:54:03.936Z,116.03
2017-11-01T16:56:32.559Z,107.83
2017-11-01T16:59:02.276Z,105.03
2017-11-01T17:01:32.746Z,126.10
2017-11-01T17:04:01.094Z,105.00
2017-11-01T17:06:30.218Z,114.10
2017-11-01T17:08:58.997Z,105.53
2017-11-01T17:11:27.376Z,111.37
2017-11-01T17:13:55.743Z,99.60
2017-11-01T17:16:24.671Z,95.53
2017-11-01T17:18:53.015Z,96.63
2017-11-01T17:21:21.394Z,97.83
2017-11-01T17:23:49.956Z,106.43
2017-11-01T17:26:19.322Z,80.70
2017-11-01T17:28:47.686Z,91.50
2017-11-01T17:31:16.117Z,81.63
2017-11-01T17:33:45.261Z,80.67
2017-11-01T17:36:13.649Z,78.43
2017-11-01T17:38:42.099Z,81.90
2017-11-01T17:41:11.222Z,101.10
2017-11-01T17:43:39.569Z,83.67
2017-11-01T17:46:08.115Z,85.73
2017-11-01T17:48:36.471Z,97.43
2017-11-01T17:51:05.727Z,71.80
2017-11-01T17:53:34.901Z,82.80
2017-11-01T17:56:03.593Z,75.60
2017-11-01T17:58:31.955Z,78.13
2017-11-01T18:01:00.373Z,88.80
2017-11-01T18:03:28.751Z,81.63
2017-11-01T18:05:57.875Z,70.33
2017-11-01T18:08:26.381Z,87.13
2017-11-01T18:10:54.780Z,84.07
2017-11-01T18:13:23.147Z,76.33
2017-11-01T18:15:52.509Z,92.80
2017-11-01T18:18:21.677Z,94.90
2017-11-01T18:20:50.062Z,99.43
2017-11-01T18:23:19.214Z,91.97
2017-11-01T18:25:48.339Z,91.37
2017-11-01T18:28:17.665Z,81.20
2017-11-01T18:30:46.285Z,79.67
2017-11-01T18:33:16.090Z,86.67
2017-11-01T18:35:44.441Z,102.63
2017-11-01T18:38:13.692Z,84.60
2017-11-01T18:40:43.616Z,85.57
2017-11-01T18:43:13.216Z,84.57
2017-11-01T18:45:41.604Z,98.13
2017-11-01T18:48:09.971Z,84.03
2017-11-01T18:50:38.760Z,97.53
2017-11-01T18:53:07.195Z,99.53
2017-11-01T18:55:36.574Z,99.03
2017-11-01T18:58:06.358Z,94.17
2017-11-01T19:00:34.748Z,95.83
2017-11-01T19:03:03.315Z,101.27
2017-11-01T19:05:31.667Z,84.47
2017-11-01T19:08:01.656Z,95.93
2017-11-01T19:10:30.001Z,109.87
2017-11-01T19:12:58.371Z,101.10
2017-11-01T19:15:27.155Z,102.10
2017-11-01T19:17:58.281Z,97.47
2017-11-01T19:20:26.694Z,104.90
2017-11-01T19:22:55.089Z,100.37
2017-11-01T19:25:23.432Z,99.70
2017-11-01T19:27:52.021Z,104.67
2017-11-01T19:30:20.408Z,109.70
2017-11-01T19:32:49.520Z,94.23
2017-11-01T19:35:17.898Z,97.63
2017-11-01T19:37:47.252Z,111.33
2017-11-01T19:40:15.600Z,96.07
2017-11-01T19:42:44.758Z,105.70
2017-11-01T19:45:13.178Z,93.83
2017-11-01T19:47:42.158Z,107.00
2017-11-01T19:50:10.516Z,105.63
2017-11-01T19:52:38.913Z,103.50
2017-11-01T19:55:07.275Z,105.00
2017-11-01T19:57:36.747Z,94.77
2017-11-01T20:00:06.214Z,105.20
2017-11-01T20:02:34.969Z,97.27
2017-11-01T20:05:05.247Z,97.70
2017-11-01T20:07:35.206Z,103.27
2017-11-01T20:10:05.291Z,101.10
2017-11-01T20:12:34.513Z,104.47
2017-11-01T20:15:02.996Z,115.77
2017-11-01T20:17:31.359Z,97.80
2017-11-01T20:20:00.593Z,108.37
2017-11-01T20:22:29.308Z,108.93
2017-11-01T20:24:58.470Z,111.53
2017-11-01T20:27:28.027Z,106.33
2017-11-01T20:29:57.342Z,113.47
2017-11-01T20:32:27.184Z,117.00
2017-11-01T20:34:57.485Z,114.93
2017-11-01T20:37:26.624Z,122.33
2017-11-01T20:39:55.051Z,119.80
2017-11-01T20:42:23.498Z,116.77
2017-11-01T20:44:51.981Z,125.57
2017-11-01T20:47:20.854Z,106.97
2017-11-01T20:49:49.235Z,126.10
2017-11-01T20:52:17.651Z,129.23
2017-11-01T20:54:46.013Z,111.33
2017-11-01T20:57:14.603Z,120.93
2017-11-01T20:59:43.664Z,111.83
2017-11-01T21:02:12.273Z,113.97
2017-11-01T21:04:41.486Z,116.57
2017-11-01T21:07:09.954Z,123.20
2017-11-01T21:09:38.525Z,114.40
2017-11-01T21:12:07.235Z,107.27
2017-11-01T21:14:35.778Z,114.03
2017-11-01T21:17:04.195Z,98.07
2017-11-01T21:19:34.124Z,106.23
2017-11-01T21:22:02.605Z,110.50
2017-11-01T21:24:30.968Z,105.43
2017-11-01T21:26:59.300Z,95.33
2017-11-01T21:29:28.511Z,95.30
2017-11-01T21:31:56.882Z,98.67
2017-11-01T21:34:25.971Z,111.90
2017-11-01T21:36:55.157Z,118.93
2017-11-01T21:39:23.515Z,113.23
2017-11-01T21:41:51.876Z,117.53
2017-11-01T21:44:20.262Z,116.40
2017-11-01T21:46:48.637Z,115.37
2017-11-01T21:49:17.018Z,125.57
2017-11-01T21:51:45.618Z,115.90
2017-11-01T21:54:13.973Z,113.17
2017-11-01T21:56:42.580Z,97.80
2017-11-01T21:59:10.976Z,111.03
2017-11-01T22:01:40.115Z,102.40
2017-11-01T22:04:08.485Z,100.80
2017-11-01T22:06:38.102Z,100.63
2017-11-01T22:09:06.454Z,109.00
2017-11-01T22:11:35.501Z,97.70
2017-11-01T22:14:04.054Z,98.93
2017-11-01T22:16:32.428Z,87.43
2017-11-01T22:19:00.757Z,99.53
2017-11-01T22:21:29.151Z,82.47
2017-11-01T22:23:57.753Z,84.93
2017-11-01T22:26:26.630Z,84.77
2017-11-01T22:28:55.340Z,83.23
2017-11-01T22:31:23.924Z,72.57
2017-11-01T22:33:52.524Z,66.80
2017-11-01T22:36:21.772Z,83.43
2017-11-01T22:38:50.126Z,79.43
2017-11-01T22:41:18.518Z,66.90
2017-11-01T22:43:47.684Z,69.63
2017-11-01T22:46:16.296Z,81.03
2017-11-01T22:48:45.286Z,70.87
2017-11-01T22:51:14.234Z,76.10
2017-11-01T22:53:43.191Z,70.40
2017-11-01T22:56:12.045Z,72.77
2017-11-01T22:58:41.213Z,73.53
2017-11-01T23:01:10.131Z,66.67
2017-11-01T23:03:39.404Z,74.97
2017-11-01T23:06:07.888Z,73.77
2017-11-01T23:08:36.223Z,79.57
2017-11-01T23:11:05.357Z,74.97
2017-11-01T23:13:33.741Z,72.80
2017-11-01T23:16:02.112Z,81.10
2017-11-01T23:18:32.001Z,68.30
2017-11-01T23:21:01.336Z,81.67
2017-11-01T23:23:29.886Z,71.53
2017-11-01T23:25:58.434Z,79.87
2017-11-01T23:28:27.726Z,73.90
2017-11-01T23:30:56.854Z,63.90
2017-11-01T23:33:25.992Z,69.20
2017-11-01T23:35:55.118Z,71.50
2017-11-01T23:38:23.462Z,64.90
2017-11-01T23:40:51.828Z,64.30
2017-11-01T23:43:21.141Z,74.80
2017-11-01T23:45:50.241Z,61.63
2017-11-01T23:48:19.367Z,63.83
2017-11-01T23:50:47.782Z,68.50
2017-11-01T23:53:16.913Z,60.00
2017-11-01T23:55:46.707Z,57.87
2017-11-01T23:58:15.863Z,59.63
